Time;durP1;ratioP1;P1;durP2;ratioP2;P2;SDS_P1;SDS_P2;PMS_P1;PMS_P2;Temp;Humidity;BMP_temperature;BMP_pressure;BME280_temperature;BME280_humidity;BME280_pressure;Samples;Min_cycle;Max_cycle;Signal;HPM_P1;HPM_P2
2022/09/12 00:01:45;;;;;;;;;1.00;1.00;;;;;22.91;53.06;100684.21;110431;1265;14790;-72
2022/09/12 00:04:13;;;;;;;;;2.33;2.00;;;;;22.90;53.05;100685.05;110513;1264;14474;-73
2022/09/12 00:06:40;;;;;;;;;2.00;2.00;;;;;22.90;53.15;100683.41;110445;1264;14487;-71
2022/09/12 00:09:08;;;;;;;;;2.00;2.00;;;;;22.90;53.10;100685.52;110438;1264;15436;-72
2022/09/12 00:11:36;;;;;;;;;2.00;2.00;;;;;22.89;53.09;100684.98;110445;1264;13459;-72
2022/09/12 00:14:04;;;;;;;;;3.00;3.00;;;;;22.90;52.98;100686.85;110394;1264;12970;-71
2022/09/12 00:16:31;;;;;;;;;2.00;2.00;;;;;22.90;53.03;100687.45;110431;1264;12554;-71
2022/09/12 00:18:58;;;;;;;;;2.00;2.00;;;;;22.89;53.07;100684.65;110460;1264;12769;-71
2022/09/12 00:21:26;;;;;;;;;2.00;2.00;;;;;22.89;53.04;100683.55;110437;1263;14531;-72
2022/09/12 00:23:54;;;;;;;;;3.00;3.00;;;;;22.89;53.04;100682.39;110456;1264;15775;-73
2022/09/12 00:26:21;;;;;;;;;2.00;2.00;;;;;22.88;53.01;100684.84;110456;1264;12969;-72
2022/09/12 00:28:49;;;;;;;;;2.00;2.00;;;;;22.89;52.99;100680.41;110464;1263;16842;-72
2022/09/12 00:31:16;;;;;;;;;2.33;2.00;;;;;22.90;52.98;100683.23;110492;1265;12999;-73
2022/09/12 00:33:44;;;;;;;;;2.33;2.33;;;;;22.90;53.00;100679.02;110481;1264;14505;-74
2022/09/12 00:36:13;;;;;;;;;2.00;2.00;;;;;22.89;52.95;100681.26;110427;1264;14960;-72
2022/09/12 00:38:40;;;;;;;;;2.00;2.00;;;;;22.88;52.93;100683.96;110450;1264;13028;-72
2022/09/12 00:41:08;;;;;;;;;2.00;2.00;;;;;22.89;52.90;100686.00;110414;1265;14149;-72
2022/09/12 00:43:35;;;;;;;;;1.67;1.33;;;;;22.89;52.79;100683.11;110469;1264;12631;-72
2022/09/12 00:46:03;;;;;;;;;2.00;2.00;;;;;22.90;52.84;100684.84;110426;1264;14880;-70
2022/09/12 00:48:30;;;;;;;;;2.00;2.00;;;;;22.90;52.81;100682.70;110453;1264;14536;-73
2022/09/12 00:50:58;;;;;;;;;1.00;1.00;;;;;22.89;52.78;100683.14;110406;1264;14712;-73
2022/09/12 00:53:25;;;;;;;;;1.33;1.33;;;;;22.89;52.80;100682.76;110476;1264;15604;-72
2022/09/12 00:55:52;;;;;;;;;1.00;1.00;;;;;22.89;52.80;100683.69;110452;1264;13951;-73
2022/09/12 00:58:20;;;;;;;;;1.00;1.00;;;;;22.88;52.83;100684.09;110487;1264;12968;-72
2022/09/12 01:00:47;;;;;;;;;2.00;2.00;;;;;22.88;52.76;100681.09;110440;1263;13665;-72
2022/09/12 01:03:15;;;;;;;;;2.00;2.00;;;;;22.89;52.76;100686.27;110471;1264;15886;-73
2022/09/12 01:05:44;;;;;;;;;2.00;2.00;;;;;22.88;52.78;100686.69;110431;1265;15404;-72
2022/09/12 01:08:11;;;;;;;;;1.67;1.67;;;;;22.88;52.72;100690.34;110486;1264;15182;-72
2022/09/12 01:10:38;;;;;;;;;2.00;2.00;;;;;22.88;52.69;100691.27;110519;1264;12680;-72
2022/09/12 01:13:06;;;;;;;;;2.00;2.00;;;;;22.88;52.72;100690.52;110449;1264;14763;-72
2022/09/12 01:15:33;;;;;;;;;1.67;1.67;;;;;22.87;52.68;100687.38;110478;1264;14836;-72
2022/09/12 01:18:01;;;;;;;;;1.00;1.00;;;;;22.87;52.66;100687.89;110470;1264;14623;-73
2022/09/12 01:20:29;;;;;;;;;1.67;1.67;;;;;22.86;52.66;100688.71;110445;1262;14667;-72
2022/09/12 01:22:57;;;;;;;;;1.33;1.33;;;;;22.87;52.64;100692.69;110481;1262;15097;-72
2022/09/12 01:25:24;;;;;;;;;2.00;1.50;;;;;22.87;52.64;100692.48;110535;1262;13039;-72
2022/09/12 01:27:52;;;;;;;;;1.00;1.00;;;;;22.88;52.57;100694.42;110509;1262;14505;-72
2022/09/12 01:30:19;;;;;;;;;1.00;1.00;;;;;22.86;52.56;100685.94;110508;1261;14549;-73
2022/09/12 01:32:47;;;;;;;;;1.67;1.67;;;;;22.87;52.57;100685.86;110397;1262;13064;-72
2022/09/12 01:35:15;;;;;;;;;1.00;1.00;;;;;22.87;52.50;100685.70;110406;1263;13156;-70
2022/09/12 01:37:43;;;;;;;;;1.33;1.33;;;;;22.87;52.49;100685.33;110547;1262;13178;-71
2022/09/12 01:40:14;;;;;;;;;1.67;1.67;;;;;22.87;52.51;100680.79;110497;1261;13204;-72
2022/09/12 01:42:44;;;;;;;;;2.00;2.00;;;;;22.87;52.46;100683.36;110545;1262;15019;-73
2022/09/12 01:45:12;;;;;;;;;2.00;2.00;;;;;22.87;52.43;100679.48;110561;1261;15399;-73
2022/09/12 01:47:39;;;;;;;;;2.67;2.00;;;;;22.87;52.39;100678.08;110482;1262;15445;-72
2022/09/12 01:50:06;;;;;;;;;1.00;1.00;;;;;22.87;52.41;100677.67;110460;1262;15831;-71
2022/09/12 01:52:34;;;;;;;;;1.67;1.67;;;;;22.87;52.41;100681.57;110524;1262;13171;-72
2022/09/12 01:55:01;;;;;;;;;1.00;1.00;;;;;22.87;52.39;100684.30;110486;1262;15302;-71
2022/09/12 01:57:29;;;;;;;;;1.67;1.67;;;;;22.88;52.38;100683.31;110497;1262;14687;-72
2022/09/12 01:59:56;;;;;;;;;1.50;1.50;;;;;22.87;52.35;100687.34;110490;1260;14101;-72
2022/09/12 02:02:25;;;;;;;;;2.00;2.00;;;;;22.87;52.38;100688.81;110479;1262;14274;-72
2022/09/12 02:04:52;;;;;;;;;1.00;1.00;;;;;22.87;52.31;100685.88;110486;1262;13062;-72
2022/09/12 02:07:20;;;;;;;;;1.00;1.00;;;;;22.86;52.34;100687.82;110522;1262;13153;-72
2022/09/12 02:09:47;;;;;;;;;1.00;1.00;;;;;22.85;52.36;100687.17;110500;1260;12818;-73
2022/09/12 02:12:15;;;;;;;;;1.00;1.00;;;;;22.85;52.35;100689.83;110533;1261;13658;-72
2022/09/12 02:14:42;;;;;;;;;1.00;1.00;;;;;22.84;52.32;100687.72;110501;1262;12785;-73
2022/09/12 02:17:10;;;;;;;;;1.00;1.00;;;;;22.84;52.37;100690.63;110454;1262;13534;-72
2022/09/12 02:19:38;;;;;;;;;1.00;1.00;;;;;22.84;52.40;100685.23;110551;1261;13036;-72
2022/09/12 02:22:05;;;;;;;;;1.00;1.00;;;;;22.83;52.32;100691.86;110485;1262;14561;-72
2022/09/12 02:24:33;;;;;;;;;1.00;1.00;;;;;22.83;52.33;100691.16;110495;1262;14766;-72
2022/09/12 02:27:00;;;;;;;;;1.00;1.00;;;;;22.83;52.34;100692.83;110503;1262;15024;-72
2022/09/12 02:29:28;;;;;;;;;2.00;1.33;;;;;22.83;52.30;100698.13;110488;1262;14199;-72
2022/09/12 02:31:55;;;;;;;;;1.00;1.00;;;;;22.82;52.31;100695.86;110479;1262;14616;-71
2022/09/12 02:34:23;;;;;;;;;1.00;1.00;;;;;22.81;52.28;100697.73;110620;1261;13102;-73
2022/09/12 02:36:50;;;;;;;;;1.67;1.67;;;;;22.81;52.33;100692.25;110493;1261;14324;-71
2022/09/12 02:39:20;;;;;;;;;1.00;1.00;;;;;22.81;52.32;100690.69;110471;1261;14534;-73
2022/09/12 02:41:47;;;;;;;;;3.00;2.00;;;;;22.81;52.28;100694.35;110503;1262;14601;-72
2022/09/12 02:44:14;;;;;;;;;1.33;1.33;;;;;22.81;52.27;100698.48;110478;1264;14349;-72
2022/09/12 02:46:41;;;;;;;;;1.33;1.33;;;;;22.82;52.25;100698.57;110622;1261;13226;-72
2022/09/12 02:49:09;;;;;;;;;1.33;1.33;;;;;22.81;52.23;100705.75;110531;1260;13082;-72
2022/09/12 02:51:37;;;;;;;;;2.00;2.00;;;;;22.82;52.20;100704.00;110555;1261;13826;-72
2022/09/12 02:54:05;;;;;;;;;1.33;1.33;;;;;22.82;52.19;100705.81;110571;1261;13480;-72
2022/09/12 02:56:32;;;;;;;;;1.00;1.00;;;;;22.82;52.15;100705.34;110489;1262;13544;-72
2022/09/12 02:59:00;;;;;;;;;1.00;1.00;;;;;22.82;52.14;100706.36;110483;1261;13170;-72
2022/09/12 03:01:27;;;;;;;;;1.00;1.00;;;;;22.83;52.14;100705.98;110548;1262;12662;-72
2022/09/12 03:03:55;;;;;;;;;1.33;1.00;;;;;22.82;52.13;100706.59;110463;1262;14046;-72
2022/09/12 03:06:23;;;;;;;;;1.00;1.00;;;;;22.81;52.11;100709.02;110522;1261;15375;-72
2022/09/12 03:08:50;;;;;;;;;1.00;1.00;;;;;22.81;52.11;100712.35;110524;1261;14462;-72
2022/09/12 03:11:18;;;;;;;;;1.00;1.00;;;;;22.80;52.07;100717.89;110435;1262;14460;-72
2022/09/12 03:13:46;;;;;;;;;2.33;2.33;;;;;22.81;52.06;100720.41;110508;1262;12913;-72
2022/09/12 03:16:13;;;;;;;;;1.00;1.00;;;;;22.81;51.99;100721.46;110530;1262;13205;-72
2022/09/12 03:18:41;;;;;;;;;2.00;2.00;;;;;22.80;52.08;100724.07;110483;1262;14180;-72
2022/09/12 03:21:08;;;;;;;;;2.00;2.00;;;;;22.81;52.01;100722.39;110487;1262;15371;-73
2022/09/12 03:23:36;;;;;;;;;2.00;2.00;;;;;22.82;52.02;100728.27;110499;1262;14638;-72
2022/09/12 03:26:03;;;;;;;;;1.33;1.33;;;;;22.82;51.98;100726.07;110495;1262;14586;-72
2022/09/12 03:28:31;;;;;;;;;2.00;2.00;;;;;22.80;51.99;100728.48;110570;1262;13138;-73
2022/09/12 03:30:58;;;;;;;;;1.33;1.33;;;;;22.79;51.98;100731.16;110501;1262;14034;-73
2022/09/12 03:33:26;;;;;;;;;1.00;1.00;;;;;22.79;51.97;100734.02;110506;1262;13834;-72
2022/09/12 03:35:54;;;;;;;;;1.00;1.00;;;;;22.80;51.96;100735.45;110498;1262;13205;-73
2022/09/12 03:38:21;;;;;;;;;1.00;1.00;;;;;22.80;51.99;100739.45;110495;1262;13593;-73
2022/09/12 03:40:48;;;;;;;;;1.00;1.00;;;;;22.79;51.98;100739.37;110514;1262;14363;-71
2022/09/12 03:43:15;;;;;;;;;1.00;1.00;;;;;22.78;51.98;100739.86;110522;1262;13059;-72
2022/09/12 03:45:43;;;;;;;;;1.33;1.33;;;;;22.79;51.99;100737.59;110466;1262;14645;-71
2022/09/12 03:48:10;;;;;;;;;1.00;1.00;;;;;22.78;51.97;100734.97;110498;1262;12571;-70
2022/09/12 03:50:38;;;;;;;;;1.00;1.00;;;;;22.78;51.95;100735.19;110417;1262;13141;-70
2022/09/12 03:53:05;;;;;;;;;3.00;3.00;;;;;22.77;51.96;100730.33;110330;1262;13445;-70
2022/09/12 03:55:33;;;;;;;;;1.00;1.00;;;;;22.78;51.88;100734.77;110524;1261;12525;-71
2022/09/12 03:58:01;;;;;;;;;1.00;1.00;;;;;22.78;51.92;100734.64;110472;1261;13439;-71
2022/09/12 04:00:28;;;;;;;;;1.00;1.00;;;;;22.78;51.92;100733.20;110488;1262;12226;-71
2022/09/12 04:02:56;;;;;;;;;1.00;1.00;;;;;22.78;51.92;100736.08;110479;1261;14871;-71
2022/09/12 04:05:24;;;;;;;;;1.00;1.00;;;;;22.77;51.89;100740.86;110481;1262;13071;-71
2022/09/12 04:07:51;;;;;;;;;1.00;1.00;;;;;22.78;51.87;100741.54;110491;1262;13680;-70
2022/09/12 04:10:18;;;;;;;;;1.00;1.00;;;;;22.78;51.84;100744.98;110527;1262;12604;-70
2022/09/12 04:12:46;;;;;;;;;1.00;1.00;;;;;22.78;51.78;100746.96;110476;1262;12967;-70
2022/09/12 04:15:13;;;;;;;;;1.00;1.00;;;;;22.78;51.80;100748.64;110459;1262;14264;-71
2022/09/12 04:17:41;;;;;;;;;1.33;1.33;;;;;22.78;51.76;100748.67;110477;1262;13543;-73
2022/09/12 04:20:08;;;;;;;;;2.00;2.00;;;;;22.79;51.79;100750.16;110471;1262;13313;-72
2022/09/12 04:22:35;;;;;;;;;2.00;2.00;;;;;22.82;51.96;100750.46;110536;1261;13087;-72
2022/09/12 04:25:03;;;;;;;;;89.33;67.33;;;;;22.86;52.19;100751.10;110429;1261;18123;-71
2022/09/12 04:27:30;;;;;;;;;76.00;58.50;;;;;22.89;52.29;100748.18;110404;1262;13743;-72
2022/09/12 04:29:58;;;;;;;;;52.33;39.33;;;;;22.90;52.85;100745.34;110399;1262;13658;-72
2022/09/12 04:32:26;;;;;;;;;41.00;33.67;;;;;22.88;53.16;100746.48;110467;1262;13249;-72
2022/09/12 04:34:54;;;;;;;;;32.67;29.00;;;;;22.86;53.36;100748.36;110416;1262;14702;-72
2022/09/12 04:37:22;;;;;;;;;26.33;22.00;;;;;22.84;53.42;100749.81;110495;1262;13287;-72
2022/09/12 04:39:50;;;;;;;;;24.33;20.00;;;;;22.84;53.62;100749.01;110420;1262;14649;-73
2022/09/12 04:42:18;;;;;;;;;17.00;16.00;;;;;22.83;53.68;100751.68;110413;1262;13718;-71
2022/09/12 04:44:45;;;;;;;;;16.00;15.00;;;;;22.83;53.54;100750.34;110465;1262;14143;-72
2022/09/12 04:47:13;;;;;;;;;36.33;32.00;;;;;22.86;53.68;100752.58;110443;1262;14336;-72
2022/09/12 04:49:40;;;;;;;;;48.67;41.33;;;;;22.88;53.88;100757.08;110512;1262;13352;-71
2022/09/12 04:52:08;;;;;;;;;54.33;43.33;;;;;22.91;54.41;100756.08;110462;1261;13419;-72
2022/09/12 04:54:35;;;;;;;;;43.00;37.00;;;;;22.92;54.87;100754.94;110388;1262;13739;-73
2022/09/12 04:57:03;;;;;;;;;28.00;26.00;;;;;22.95;55.45;100751.80;110433;1262;13342;-72
2022/09/12 04:59:31;;;;;;;;;24.67;22.00;;;;;22.99;55.83;100754.48;110322;1261;13261;-72
2022/09/12 05:01:59;;;;;;;;;22.33;20.33;;;;;23.07;56.39;100755.09;110414;1264;14183;-73
2022/09/12 05:04:27;;;;;;;;;20.00;17.00;;;;;23.08;56.39;100757.05;110487;1262;13131;-73
2022/09/12 05:06:55;;;;;;;;;16.67;16.33;;;;;23.06;56.21;100760.80;110451;1262;14015;-73
2022/09/12 05:09:23;;;;;;;;;13.00;11.67;;;;;23.06;56.16;100764.80;110451;1262;15110;-73
2022/09/12 05:11:50;;;;;;;;;17.50;12.00;;;;;23.07;56.03;100764.52;110387;1262;14299;-71
2022/09/12 05:14:18;;;;;;;;;12.33;11.00;;;;;23.09;56.01;100770.67;110275;1265;14220;-72
2022/09/12 05:16:46;;;;;;;;;11.33;10.00;;;;;23.06;55.84;100763.03;109640;1264;1049211;-72
2022/09/12 05:19:14;;;;;;;;;12.33;10.33;;;;;23.04;55.85;100767.96;110503;1263;13206;-71
2022/09/12 05:21:41;;;;;;;;;12.50;10.50;;;;;23.03;55.82;100767.16;110398;1264;14764;-71
2022/09/12 05:24:09;;;;;;;;;10.00;8.00;;;;;23.01;55.67;100767.30;110411;1264;13207;-72
2022/09/12 05:26:36;;;;;;;;;8.00;7.67;;;;;23.01;55.52;100773.79;110375;1264;14108;-69
2022/09/12 05:29:03;;;;;;;;;7.33;7.00;;;;;23.00;55.31;100773.02;110394;1264;18791;-72
2022/09/12 05:31:30;;;;;;;;;10.00;7.50;;;;;22.99;55.17;100778.48;110456;1264;13046;-71
2022/09/12 05:33:58;;;;;;;;;7.67;7.33;;;;;22.96;54.92;100778.42;110381;1264;13192;-72
2022/09/12 05:36:26;;;;;;;;;6.67;6.00;;;;;22.95;54.56;100781.52;110284;1264;14056;-71
2022/09/12 05:38:54;;;;;;;;;11.00;7.33;;;;;22.97;54.24;100780.23;110186;1263;14142;-70
2022/09/12 05:41:21;;;;;;;;;5.00;5.00;;;;;23.05;54.38;100788.16;110188;1263;13157;-69
2022/09/12 05:43:49;;;;;;;;;6.00;5.67;;;;;23.06;54.13;100788.00;110270;1264;13224;-69
2022/09/12 05:46:16;;;;;;;;;5.67;5.00;;;;;23.03;54.24;100792.77;110276;1265;13221;-70
2022/09/12 05:48:43;;;;;;;;;4.33;4.33;;;;;23.02;54.23;100792.55;110141;1264;14917;-69
2022/09/12 05:51:11;;;;;;;;;6.67;6.00;;;;;23.01;54.17;100794.80;110421;1264;14315;-71
2022/09/12 05:53:38;;;;;;;;;5.00;5.00;;;;;23.04;54.04;100795.54;110469;1264;13868;-72
2022/09/12 05:56:06;;;;;;;;;3.00;3.00;;;;;23.07;54.02;100794.59;110426;1264;14173;-72
2022/09/12 05:58:34;;;;;;;;;5.33;5.00;;;;;23.12;53.88;100795.66;110405;1263;13038;-72
2022/09/12 06:01:02;;;;;;;;;5.00;5.00;;;;;23.14;53.75;100791.81;110317;1263;13654;-72
2022/09/12 06:03:30;;;;;;;;;3.00;3.00;;;;;23.18;53.59;100791.94;110310;1263;13926;-70
2022/09/12 06:05:57;;;;;;;;;3.67;3.67;;;;;23.21;53.43;100792.40;110353;1264;12824;-72
2022/09/12 06:08:25;;;;;;;;;3.00;3.00;;;;;23.23;53.34;100796.23;110392;1264;13177;-70
2022/09/12 06:10:52;;;;;;;;;4.33;3.67;;;;;23.25;53.23;100796.20;110322;1265;13518;-71
2022/09/12 06:13:20;;;;;;;;;6.00;5.00;;;;;23.27;53.12;100791.92;110339;1264;13000;-70
2022/09/12 06:15:48;;;;;;;;;3.00;3.00;;;;;23.29;52.92;100791.69;110249;1263;14031;-70
2022/09/12 06:18:15;;;;;;;;;5.00;3.00;;;;;23.32;52.94;100794.80;110396;1264;13001;-71
2022/09/12 06:20:43;;;;;;;;;4.00;3.00;;;;;23.33;52.83;100789.13;110391;1264;13812;-71
2022/09/12 06:23:11;;;;;;;;;5.00;4.33;;;;;23.37;52.71;100790.86;110471;1264;13205;-72
2022/09/12 06:25:38;;;;;;;;;3.00;3.00;;;;;23.39;52.61;100791.27;110444;1264;12143;-72
2022/09/12 06:28:07;;;;;;;;;3.00;3.00;;;;;23.42;52.51;100788.69;110366;1264;13855;-72
2022/09/12 06:30:35;;;;;;;;;4.33;4.33;;;;;23.44;52.38;100790.78;110390;1265;13448;-71
2022/09/12 06:33:02;;;;;;;;;5.33;5.33;;;;;23.47;52.33;100792.81;110321;1263;14037;-71
2022/09/12 06:35:30;;;;;;;;;3.00;2.00;;;;;23.49;52.28;100794.24;110227;1265;13692;-70
2022/09/12 06:37:57;;;;;;;;;2.00;2.00;;;;;23.52;52.17;100796.55;110432;1264;13714;-71
2022/09/12 06:40:26;;;;;;;;;2.67;2.67;;;;;23.54;52.08;100797.63;110448;1264;13090;-72
2022/09/12 06:42:53;;;;;;;;;3.00;3.00;;;;;23.54;52.00;100797.80;110434;1264;13059;-72
2022/09/12 06:45:21;;;;;;;;;3.00;3.00;;;;;23.55;51.98;100796.34;110415;1264;13207;-73
2022/09/12 06:47:48;;;;;;;;;2.67;2.67;;;;;23.56;51.91;100799.95;110429;1264;12752;-71
2022/09/12 06:50:16;;;;;;;;;3.33;3.33;;;;;23.57;51.84;100797.02;110401;1264;13200;-70
2022/09/12 06:52:44;;;;;;;;;3.00;3.00;;;;;23.59;51.84;100796.64;110445;1264;12786;-72
2022/09/12 06:55:12;;;;;;;;;3.00;3.00;;;;;23.59;51.77;100796.57;110415;1264;13169;-72
2022/09/12 06:57:40;;;;;;;;;3.00;3.00;;;;;23.60;51.72;100796.46;110398;1264;13535;-71
2022/09/12 07:00:08;;;;;;;;;2.00;2.00;;;;;23.60;51.64;100795.23;110315;1262;12956;-71
2022/09/12 07:02:35;;;;;;;;;2.33;2.33;;;;;23.63;51.66;100799.14;110315;1262;13081;-71
2022/09/12 07:05:03;;;;;;;;;3.00;2.67;;;;;23.62;51.65;100798.10;110307;1264;14820;-70
2022/09/12 07:07:33;;;;;;;;;6.00;4.00;;;;;23.49;51.45;100800.04;110334;1264;13060;-70
2022/09/12 07:10:01;;;;;;;;;4.33;4.33;;;;;23.39;50.94;100800.53;110346;1264;14011;-71
2022/09/12 07:12:29;;;;;;;;;6.00;4.33;;;;;23.33;50.75;100800.16;110413;1264;14682;-72
2022/09/12 07:14:56;;;;;;;;;7.67;7.00;;;;;23.28;51.02;100801.77;110376;1264;14433;-71
2022/09/12 07:17:24;;;;;;;;;7.00;6.33;;;;;23.32;51.03;100805.70;110452;1264;14437;-72
2022/09/12 07:19:51;;;;;;;;;9.00;7.00;;;;;23.31;50.68;100804.05;110499;1264;13104;-72
2022/09/12 07:22:19;;;;;;;;;7.67;7.33;;;;;23.30;50.27;100805.77;110456;1264;12742;-71
2022/09/12 07:24:46;;;;;;;;;7.00;7.00;;;;;23.29;50.02;100810.63;110432;1265;13119;-71
2022/09/12 07:27:14;;;;;;;;;4.00;4.00;;;;;23.29;49.94;100807.92;110397;1264;14081;-71
2022/09/12 07:29:43;;;;;;;;;6.33;6.33;;;;;23.33;49.78;100811.98;110344;1262;14367;-71
2022/09/12 07:32:10;;;;;;;;;6.00;6.00;;;;;23.33;49.67;100815.02;110419;1264;14693;-71
2022/09/12 07:34:38;;;;;;;;;5.00;5.00;;;;;23.31;49.62;100817.50;110334;1264;12768;-71
2022/09/12 07:37:07;;;;;;;;;6.50;6.00;;;;;23.32;49.31;100818.13;110296;1264;15148;-70
2022/09/12 07:39:34;;;;;;;;;23.67;18.67;;;;;23.33;49.08;100819.77;110823;1264;13164;-71
2022/09/12 07:42:02;;;;;;;;;64.33;49.33;;;;;23.39;48.84;100822.48;110349;1263;13523;-70
2022/09/12 07:44:31;;;;;;;;;61.67;45.67;;;;;23.42;48.57;100819.04;110358;1264;13449;-69
2022/09/12 07:46:58;;;;;;;;;55.50;39.50;;;;;23.37;48.28;100823.06;110397;1265;13447;-68
2022/09/12 07:49:26;;;;;;;;;27.00;22.67;;;;;23.38;47.91;100827.53;110394;1264;11697;-70
2022/09/12 07:51:53;;;;;;;;;18.50;16.50;;;;;23.40;47.79;100826.29;110392;1264;14667;-70
2022/09/12 07:54:21;;;;;;;;;15.67;12.67;;;;;23.45;47.78;100822.13;110330;1263;14140;-70
2022/09/12 07:56:48;;;;;;;;;16.33;11.33;;;;;23.41;47.53;100823.19;110299;1263;20225;-70
2022/09/12 07:59:16;;;;;;;;;10.33;10.00;;;;;23.39;47.33;100831.11;110297;1264;14243;-68
2022/09/12 08:01:43;;;;;;;;;8.00;8.00;;;;;23.44;47.20;100830.38;110422;1264;14216;-70
2022/09/12 08:04:11;;;;;;;;;12.50;11.00;;;;;23.45;47.15;100826.40;110375;1263;13642;-69
2022/09/12 08:06:38;;;;;;;;;9.33;9.00;;;;;23.51;47.06;100831.21;110232;1264;14365;-69
2022/09/12 08:09:06;;;;;;;;;8.00;7.00;;;;;23.55;47.09;100825.99;110319;1264;13027;-69
2022/09/12 08:11:33;;;;;;;;;8.00;7.33;;;;;23.46;47.06;100830.91;110365;1264;14207;-69
2022/09/12 08:14:01;;;;;;;;;7.00;7.00;;;;;23.43;46.99;100830.56;110421;1264;13204;-69
2022/09/12 08:16:29;;;;;;;;;5.33;4.00;;;;;23.41;46.74;100834.41;110360;1264;13180;-72
2022/09/12 08:18:58;;;;;;;;;6.67;6.67;;;;;23.39;46.72;100828.85;110339;1263;14224;-69
2022/09/12 08:21:25;;;;;;;;;7.00;7.00;;;;;23.44;46.62;100833.03;110338;1264;13408;-68
2022/09/12 08:23:52;;;;;;;;;7.00;6.33;;;;;23.58;46.84;100831.59;110330;1264;13336;-69
2022/09/12 08:26:20;;;;;;;;;5.00;5.00;;;;;23.67;46.90;100829.58;110287;1264;13168;-69
2022/09/12 08:28:47;;;;;;;;;7.50;7.00;;;;;23.69;46.95;100829.39;110335;1264;13181;-67
2022/09/12 08:31:15;;;;;;;;;5.67;5.67;;;;;23.71;47.01;100828.64;110299;1264;13832;-65
2022/09/12 08:33:43;;;;;;;;;4.00;4.00;;;;;23.75;47.13;100829.19;110397;1264;13192;-69
2022/09/12 08:36:10;;;;;;;;;7.00;6.67;;;;;23.72;46.95;100829.08;110359;1263;13143;-70
2022/09/12 08:38:37;;;;;;;;;6.33;6.00;;;;;23.66;46.69;100827.70;110686;1262;13144;-68
2022/09/12 08:41:05;;;;;;;;;8.00;7.00;;;;;23.62;46.51;100824.13;110408;1264;13217;-69
2022/09/12 08:43:33;;;;;;;;;8.67;7.33;;;;;23.60;45.90;100825.65;110404;1264;12935;-69
2022/09/12 08:46:00;;;;;;;;;7.33;7.00;;;;;23.43;45.56;100833.13;110420;1264;13087;-72
2022/09/12 08:48:28;;;;;;;;;7.00;7.00;;;;;23.30;45.32;100828.80;110367;1264;14483;-70
2022/09/12 08:50:55;;;;;;;;;6.00;6.00;;;;;23.20;44.82;100832.91;110355;1262;15842;-71
2022/09/12 08:53:23;;;;;;;;;4.00;4.00;;;;;23.12;44.48;100832.64;110419;1264;14223;-72
2022/09/12 08:55:52;;;;;;;;;6.00;6.00;;;;;23.13;44.27;100829.91;110470;1264;13186;-70
2022/09/12 08:58:19;;;;;;;;;7.00;6.67;;;;;23.15;43.88;100839.81;110332;1263;13436;-72
2022/09/12 09:00:47;;;;;;;;;6.00;6.00;;;;;23.13;43.85;100835.21;110424;1264;14341;-70
2022/09/12 09:03:14;;;;;;;;;6.00;6.00;;;;;23.12;43.81;100841.09;110367;1263;14826;-69
2022/09/12 09:05:42;;;;;;;;;5.00;5.00;;;;;23.06;43.81;100839.53;110177;1264;12852;-69
2022/09/12 09:08:09;;;;;;;;;6.33;6.33;;;;;23.04;43.78;100845.84;110408;1264;14852;-70
2022/09/12 09:10:37;;;;;;;;;6.00;6.00;;;;;23.03;43.87;100842.77;110466;1264;14000;-71
2022/09/12 09:13:04;;;;;;;;;6.00;6.00;;;;;23.03;43.96;100839.23;110408;1264;14494;-71
2022/09/12 09:15:32;;;;;;;;;5.33;5.33;;;;;23.08;43.99;100838.52;110420;1264;14940;-71
2022/09/12 09:17:59;;;;;;;;;6.00;6.00;;;;;23.09;44.15;100835.16;110372;1265;14516;-72
2022/09/12 09:20:28;;;;;;;;;7.67;7.00;;;;;23.14;44.14;100836.39;110414;1264;13919;-68
2022/09/12 09:22:55;;;;;;;;;5.33;5.33;;;;;23.13;44.08;100838.29;110456;1264;14152;-68
2022/09/12 09:25:23;;;;;;;;;6.00;5.00;;;;;23.06;43.88;100835.58;110438;1264;12788;-69
2022/09/12 09:27:50;;;;;;;;;3.00;3.00;;;;;23.04;43.37;100839.96;110368;1263;14216;-69
2022/09/12 09:30:18;;;;;;;;;5.33;5.33;;;;;23.04;43.17;100835.42;110310;1264;13772;-70
2022/09/12 09:32:45;;;;;;;;;8.00;8.00;;;;;23.02;43.29;100839.45;110412;1263;14302;-69
2022/09/12 09:35:12;;;;;;;;;7.00;7.00;;;;;22.99;43.38;100838.21;110426;1264;14458;-69
2022/09/12 09:37:40;;;;;;;;;9.33;7.67;;;;;22.98;43.31;100837.27;110440;1264;12916;-70
2022/09/12 09:40:08;;;;;;;;;9.33;7.67;;;;;22.99;43.28;100838.94;110464;1262;14427;-70
2022/09/12 09:42:35;;;;;;;;;6.00;6.00;;;;;22.92;43.23;100833.58;110350;1262;14127;-69
2022/09/12 09:45:02;;;;;;;;;5.67;5.00;;;;;22.93;43.29;100836.83;110385;1264;14265;-70
2022/09/12 09:47:29;;;;;;;;;5.00;5.00;;;;;22.92;43.15;100842.41;110384;1264;14617;-70
2022/09/12 09:49:57;;;;;;;;;6.00;6.00;;;;;22.86;42.79;100844.32;110262;1265;13377;-71
2022/09/12 09:52:24;;;;;;;;;6.00;6.00;;;;;22.85;42.57;100848.88;110443;1264;12734;-70
2022/09/12 09:54:53;;;;;;;;;7.00;5.33;;;;;22.84;42.49;100849.33;110458;1264;14346;-70
2022/09/12 09:57:20;;;;;;;;;6.00;6.00;;;;;22.86;42.44;100844.73;110476;1264;14099;-70
2022/09/12 09:59:47;;;;;;;;;5.00;5.00;;;;;22.86;42.41;100838.89;110417;1264;13927;-70
2022/09/12 10:02:15;;;;;;;;;8.00;7.00;;;;;22.89;42.34;100837.27;110444;1265;13170;-71
2022/09/12 10:04:42;;;;;;;;;10.00;8.00;;;;;22.89;42.09;100842.91;110494;1265;13117;-70
2022/09/12 10:07:10;;;;;;;;;6.00;6.00;;;;;22.84;41.92;100850.29;110432;1264;14872;-69
2022/09/12 10:09:37;;;;;;;;;6.33;6.00;;;;;22.80;41.85;100849.14;110419;1264;13483;-70
2022/09/12 10:12:05;;;;;;;;;3.00;3.00;;;;;22.80;41.94;100846.58;110318;1262;15049;-70
2022/09/12 10:14:33;;;;;;;;;6.00;6.00;;;;;22.82;42.09;100846.05;110388;1264;14864;-71
2022/09/12 10:17:02;;;;;;;;;5.00;5.00;;;;;22.84;42.21;100847.48;110188;1262;14022;-70
2022/09/12 10:19:30;;;;;;;;;6.00;5.00;;;;;22.84;42.11;100844.06;110338;1264;13258;-69
2022/09/12 10:21:59;;;;;;;;;5.00;5.00;;;;;22.75;41.94;100839.56;110197;1264;19717;-67
2022/09/12 10:24:27;;;;;;;;;6.00;6.00;;;;;22.65;41.95;100841.57;110282;1264;14120;-68
2022/09/12 10:26:55;;;;;;;;;8.67;6.33;;;;;22.71;42.04;100840.39;110408;1263;14581;-71
2022/09/12 10:29:23;;;;;;;;;6.00;6.00;;;;;22.72;42.12;100841.55;110378;1264;13239;-70
2022/09/12 10:31:50;;;;;;;;;6.67;6.67;;;;;22.75;42.11;100842.63;110414;1264;15521;-70
2022/09/12 10:34:18;;;;;;;;;6.00;6.00;;;;;22.74;41.93;100840.52;110368;1265;13748;-69
2022/09/12 10:36:45;;;;;;;;;6.00;5.33;;;;;22.74;42.03;100843.33;110455;1264;14963;-71
2022/09/12 10:39:12;;;;;;;;;5.00;5.00;;;;;22.76;42.08;100840.86;110451;1264;13129;-71
2022/09/12 10:41:40;;;;;;;;;6.00;5.00;;;;;22.74;42.17;100841.48;110328;1264;13990;-69
2022/09/12 10:44:08;;;;;;;;;5.00;5.00;;;;;22.75;42.11;100840.86;110316;1264;13819;-68
2022/09/12 10:46:36;;;;;;;;;5.00;5.00;;;;;22.73;41.84;100841.27;110346;1264;12919;-69
2022/09/12 10:49:03;;;;;;;;;5.00;5.00;;;;;22.74;41.76;100842.70;110359;1264;14419;-69
2022/09/12 10:51:31;;;;;;;;;5.00;5.00;;;;;22.74;41.61;100845.61;110296;1265;14691;-69
2022/09/12 10:53:59;;;;;;;;;6.00;6.00;;;;;22.72;41.54;100844.34;110381;1263;15071;-69
2022/09/12 10:56:27;;;;;;;;;5.00;5.00;;;;;22.68;41.34;100845.30;110417;1265;13426;-70
2022/09/12 10:58:54;;;;;;;;;6.00;6.00;;;;;22.68;41.22;100843.11;110468;1264;13043;-71
2022/09/12 11:01:22;;;;;;;;;6.33;6.00;;;;;22.66;41.37;100847.14;110436;1264;13626;-70
2022/09/12 11:03:49;;;;;;;;;5.33;5.33;;;;;22.64;41.38;100841.79;110424;1263;14199;-70
2022/09/12 11:06:17;;;;;;;;;7.00;6.33;;;;;22.63;41.28;100845.48;110448;1264;13209;-71
2022/09/12 11:08:45;;;;;;;;;5.67;5.67;;;;;22.64;41.34;100841.91;110415;1264;13833;-71
2022/09/12 11:11:13;;;;;;;;;5.00;5.00;;;;;22.63;41.26;100841.11;110415;1264;13847;-71
2022/09/12 11:13:40;;;;;;;;;7.33;6.00;;;;;22.67;41.36;100840.91;110411;1264;13047;-70
2022/09/12 11:16:08;;;;;;;;;5.00;5.00;;;;;22.68;41.25;100837.70;110319;1263;13099;-72